Dentsville, Maryland
Current Conditions -  °F | °C
As of 6:56 PM on Friday 28 Nov 2014 (Local Time) from KNYG Reporting Station
Clear Clear  
Wind Chill: 24°   Ceiling: Unl
Heat Index: 31°   Visibility: 10mi
Dew Point: 25°   Wind: 7mph
Humidity: 79%   Direction: 310°NW
Pressure: 30.32"   Gusts: NA
Location:  38.5166°N, 76.9981°W
Report Text: KNYG 282356Z AUTO 31006KT 10SM CLR M01/M04 A3032 RMK AO2 SLP266 T10061039 10044 21011 51005 FZRANO $
Loading
Personal Weather Stations






























Interactive Weather Map New forecast layout! Learn more

10-Day Weather Forecast

Advertisements
Track Severe Weather on mobile